sensor_id;sensor_type;location;lat;lon;timestamp;pressure;altitude;pressure_sealevel;temperature
20103;BMP180;10210;52.284;9.892;2022-12-01T00:01:14;101528.00;;;9.80
20103;BMP180;10210;52.284;9.892;2022-12-01T00:03:40;101540.00;;;9.80
20103;BMP180;10210;52.284;9.892;2022-12-01T00:06:14;101537.00;;;9.80
20103;BMP180;10210;52.284;9.892;2022-12-01T00:08:42;101553.00;;;9.80
20103;BMP180;10210;52.284;9.892;2022-12-01T00:11:32;101545.00;;;9.70
20103;BMP180;10210;52.284;9.892;2022-12-01T00:13:57;101543.00;;;9.70
20103;BMP180;10210;52.284;9.892;2022-12-01T00:16:23;101537.00;;;9.70
20103;BMP180;10210;52.284;9.892;2022-12-01T00:18:51;101539.00;;;9.70
20103;BMP180;10210;52.284;9.892;2022-12-01T00:21:20;101548.00;;;9.70
20103;BMP180;10210;52.284;9.892;2022-12-01T00:23:49;101547.00;;;9.70
20103;BMP180;10210;52.284;9.892;2022-12-01T00:26:17;101538.00;;;9.70
20103;BMP180;10210;52.284;9.892;2022-12-01T00:28:47;101545.00;;;9.70
20103;BMP180;10210;52.284;9.892;2022-12-01T00:31:13;101538.00;;;9.70
20103;BMP180;10210;52.284;9.892;2022-12-01T00:33:39;101544.00;;;9.70
20103;BMP180;10210;52.284;9.892;2022-12-01T00:36:05;101541.00;;;9.70
20103;BMP180;10210;52.284;9.892;2022-12-01T00:38:32;101535.00;;;9.70
20103;BMP180;10210;52.284;9.892;2022-12-01T00:40:58;101543.00;;;9.70
20103;BMP180;10210;52.284;9.892;2022-12-01T00:43:23;101540.00;;;9.70
20103;BMP180;10210;52.284;9.892;2022-12-01T00:45:50;101546.00;;;9.70
20103;BMP180;10210;52.284;9.892;2022-12-01T00:48:16;101544.00;;;9.70
20103;BMP180;10210;52.284;9.892;2022-12-01T00:50:42;101548.00;;;9.70
20103;BMP180;10210;52.284;9.892;2022-12-01T00:53:08;101546.00;;;9.70
20103;BMP180;10210;52.284;9.892;2022-12-01T00:55:34;101552.00;;;9.70
20103;BMP180;10210;52.284;9.892;2022-12-01T00:57:59;101559.00;;;9.70
20103;BMP180;10210;52.284;9.892;2022-12-01T01:00:25;101554.00;;;9.70
20103;BMP180;10210;52.284;9.892;2022-12-01T01:02:51;101548.00;;;9.70
20103;BMP180;10210;52.284;9.892;2022-12-01T01:05:17;101561.00;;;9.60
20103;BMP180;10210;52.284;9.892;2022-12-01T01:07:43;101551.00;;;9.60
20103;BMP180;10210;52.284;9.892;2022-12-01T01:10:09;101556.00;;;9.60
20103;BMP180;10210;52.284;9.892;2022-12-01T01:12:35;101554.00;;;9.60
20103;BMP180;10210;52.284;9.892;2022-12-01T01:15:04;101559.00;;;9.60
20103;BMP180;10210;52.284;9.892;2022-12-01T01:17:32;101568.00;;;9.60
20103;BMP180;10210;52.284;9.892;2022-12-01T01:19:57;101562.00;;;9.60
20103;BMP180;10210;52.284;9.892;2022-12-01T01:22:23;101560.00;;;9.60
20103;BMP180;10210;52.284;9.892;2022-12-01T01:24:49;101559.00;;;9.60
20103;BMP180;10210;52.284;9.892;2022-12-01T01:27:15;101565.00;;;9.60
20103;BMP180;10210;52.284;9.892;2022-12-01T01:29:41;101561.00;;;9.60
20103;BMP180;10210;52.284;9.892;2022-12-01T01:32:07;101561.00;;;9.60
20103;BMP180;10210;52.284;9.892;2022-12-01T01:34:33;101563.00;;;9.60
20103;BMP180;10210;52.284;9.892;2022-12-01T01:36:58;101569.00;;;9.60
20103;BMP180;10210;52.284;9.892;2022-12-01T01:39:24;101565.00;;;9.60
20103;BMP180;10210;52.284;9.892;2022-12-01T01:41:50;101557.00;;;9.50
20103;BMP180;10210;52.284;9.892;2022-12-01T01:47:21;101561.00;;;9.30
20103;BMP180;10210;52.284;9.892;2022-12-01T01:49:49;101558.00;;;9.30
20103;BMP180;10210;52.284;9.892;2022-12-01T01:52:15;101567.00;;;9.30
20103;BMP180;10210;52.284;9.892;2022-12-01T01:54:46;101567.00;;;9.20
20103;BMP180;10210;52.284;9.892;2022-12-01T01:57:19;101557.00;;;9.20
20103;BMP180;10210;52.284;9.892;2022-12-01T01:59:56;101569.00;;;9.20
20103;BMP180;10210;52.284;9.892;2022-12-01T02:02:23;101574.00;;;9.10
20103;BMP180;10210;52.284;9.892;2022-12-01T02:04:58;101575.00;;;9.10
20103;BMP180;10210;52.284;9.892;2022-12-01T02:07:25;101569.00;;;9.00
20103;BMP180;10210;52.284;9.892;2022-12-01T02:09:52;101574.00;;;9.00
20103;BMP180;10210;52.284;9.892;2022-12-01T02:12:57;101580.00;;;8.80
20103;BMP180;10210;52.284;9.892;2022-12-01T02:22:16;101570.00;;;8.70
20103;BMP180;10210;52.284;9.892;2022-12-01T02:28:11;101584.00;;;8.70
20103;BMP180;10210;52.284;9.892;2022-12-01T02:30:49;101582.00;;;8.70
20103;BMP180;10210;52.284;9.892;2022-12-01T02:33:38;101582.00;;;8.60
20103;BMP180;10210;52.284;9.892;2022-12-01T02:36:19;101578.00;;;8.60
20103;BMP180;10210;52.284;9.892;2022-12-01T02:38:55;101581.00;;;8.60
20103;BMP180;10210;52.284;9.892;2022-12-01T02:41:48;101585.00;;;8.60
20103;BMP180;10210;52.284;9.892;2022-12-01T02:44:34;101579.00;;;8.60
20103;BMP180;10210;52.284;9.892;2022-12-01T02:49:50;101582.00;;;8.60
20103;BMP180;10210;52.284;9.892;2022-12-01T02:52:22;101575.00;;;8.50
20103;BMP180;10210;52.284;9.892;2022-12-01T02:54:50;101579.00;;;8.50
20103;BMP180;10210;52.284;9.892;2022-12-01T02:57:16;101587.00;;;8.50
20103;BMP180;10210;52.284;9.892;2022-12-01T02:59:48;101586.00;;;8.40
20103;BMP180;10210;52.284;9.892;2022-12-01T03:05:05;101573.00;;;8.30
20103;BMP180;10210;52.284;9.892;2022-12-01T03:10:47;101585.00;;;8.30
20103;BMP180;10210;52.284;9.892;2022-12-01T03:18:38;101574.00;;;8.30
20103;BMP180;10210;52.284;9.892;2022-12-01T03:21:09;101569.00;;;8.30
20103;BMP180;10210;52.284;9.892;2022-12-01T03:23:50;101580.00;;;8.20
20103;BMP180;10210;52.284;9.892;2022-12-01T03:26:21;101588.00;;;8.20
20103;BMP180;10210;52.284;9.892;2022-12-01T03:28:54;101589.00;;;8.20
20103;BMP180;10210;52.284;9.892;2022-12-01T03:31:28;101579.00;;;8.30
20103;BMP180;10210;52.284;9.892;2022-12-01T03:36:55;101593.00;;;8.30
20103;BMP180;10210;52.284;9.892;2022-12-01T03:39:31;101581.00;;;8.30
20103;BMP180;10210;52.284;9.892;2022-12-01T03:42:09;101587.00;;;8.30
20103;BMP180;10210;52.284;9.892;2022-12-01T03:44:47;101579.00;;;8.30
20103;BMP180;10210;52.284;9.892;2022-12-01T03:47:19;101584.00;;;8.30
20103;BMP180;10210;52.284;9.892;2022-12-01T03:49:49;101584.00;;;8.30
20103;BMP180;10210;52.284;9.892;2022-12-01T03:52:42;101591.00;;;8.30
20103;BMP180;10210;52.284;9.892;2022-12-01T03:55:30;101583.00;;;8.30
20103;BMP180;10210;52.284;9.892;2022-12-01T03:58:10;101581.00;;;8.20
20103;BMP180;10210;52.284;9.892;2022-12-01T04:00:37;101589.00;;;8.20
20103;BMP180;10210;52.284;9.892;2022-12-01T04:03:05;101599.00;;;8.20
20103;BMP180;10210;52.284;9.892;2022-12-01T04:05:33;101594.00;;;8.20
20103;BMP180;10210;52.284;9.892;2022-12-01T04:08:00;101593.00;;;8.20
20103;BMP180;10210;52.284;9.892;2022-12-01T04:10:26;101593.00;;;8.20
20103;BMP180;10210;52.284;9.892;2022-12-01T04:12:52;101585.00;;;8.10
20103;BMP180;10210;52.284;9.892;2022-12-01T04:15:24;101589.00;;;8.10
20103;BMP180;10210;52.284;9.892;2022-12-01T04:17:50;101593.00;;;8.10
20103;BMP180;10210;52.284;9.892;2022-12-01T04:20:17;101598.00;;;8.10
20103;BMP180;10210;52.284;9.892;2022-12-01T04:22:43;101588.00;;;8.10
20103;BMP180;10210;52.284;9.892;2022-12-01T04:25:09;101588.00;;;8.20
20103;BMP180;10210;52.284;9.892;2022-12-01T04:27:35;101588.00;;;8.10
20103;BMP180;10210;52.284;9.892;2022-12-01T04:30:01;101586.00;;;8.10
20103;BMP180;10210;52.284;9.892;2022-12-01T04:32:26;101588.00;;;8.10
20103;BMP180;10210;52.284;9.892;2022-12-01T04:34:52;101592.00;;;8.10
20103;BMP180;10210;52.284;9.892;2022-12-01T04:37:18;101598.00;;;8.10
20103;BMP180;10210;52.284;9.892;2022-12-01T04:39:44;101591.00;;;8.20
20103;BMP180;10210;52.284;9.892;2022-12-01T04:42:10;101590.00;;;8.20
20103;BMP180;10210;52.284;9.892;2022-12-01T04:44:36;101597.00;;;8.20
20103;BMP180;10210;52.284;9.892;2022-12-01T04:47:03;101596.00;;;8.20
20103;BMP180;10210;52.284;9.892;2022-12-01T04:49:29;101599.00;;;8.30
20103;BMP180;10210;52.284;9.892;2022-12-01T04:51:56;101597.00;;;8.30
20103;BMP180;10210;52.284;9.892;2022-12-01T04:54:22;101599.00;;;8.30
20103;BMP180;10210;52.284;9.892;2022-12-01T04:56:48;101592.00;;;8.30
20103;BMP180;10210;52.284;9.892;2022-12-01T04:59:13;101597.00;;;8.30
20103;BMP180;10210;52.284;9.892;2022-12-01T05:01:39;101604.00;;;8.40
20103;BMP180;10210;52.284;9.892;2022-12-01T05:04:05;101603.00;;;8.40
20103;BMP180;10210;52.284;9.892;2022-12-01T05:06:31;101606.00;;;8.40
20103;BMP180;10210;52.284;9.892;2022-12-01T05:09:00;101604.00;;;8.40
20103;BMP180;10210;52.284;9.892;2022-12-01T05:11:28;101613.00;;;8.40
20103;BMP180;10210;52.284;9.892;2022-12-01T05:13:54;101617.00;;;8.40
20103;BMP180;10210;52.284;9.892;2022-12-01T05:16:24;101618.00;;;8.40
20103;BMP180;10210;52.284;9.892;2022-12-01T05:18:53;101615.00;;;8.40
20103;BMP180;10210;52.284;9.892;2022-12-01T05:21:39;101612.00;;;8.40
20103;BMP180;10210;52.284;9.892;2022-12-01T05:24:07;101624.00;;;8.40
20103;BMP180;10210;52.284;9.892;2022-12-01T05:26:33;101622.00;;;8.40
20103;BMP180;10210;52.284;9.892;2022-12-01T05:29:00;101617.00;;;8.40
20103;BMP180;10210;52.284;9.892;2022-12-01T05:31:25;101621.00;;;8.40
20103;BMP180;10210;52.284;9.892;2022-12-01T05:33:51;101633.00;;;8.40
20103;BMP180;10210;52.284;9.892;2022-12-01T05:36:17;101636.00;;;8.30
20103;BMP180;10210;52.284;9.892;2022-12-01T05:38:42;101622.00;;;8.30
20103;BMP180;10210;52.284;9.892;2022-12-01T05:41:09;101627.00;;;8.30
20103;BMP180;10210;52.284;9.892;2022-12-01T05:43:34;101640.00;;;8.20
20103;BMP180;10210;52.284;9.892;2022-12-01T05:46:00;101639.00;;;8.20
20103;BMP180;10210;52.284;9.892;2022-12-01T05:48:26;101640.00;;;8.20
20103;BMP180;10210;52.284;9.892;2022-12-01T05:50:52;101627.00;;;8.10
20103;BMP180;10210;52.284;9.892;2022-12-01T05:53:18;101632.00;;;8.10
20103;BMP180;10210;52.284;9.892;2022-12-01T05:55:44;101632.00;;;8.10
20103;BMP180;10210;52.284;9.892;2022-12-01T05:58:11;101635.00;;;8.10
20103;BMP180;10210;52.284;9.892;2022-12-01T06:00:37;101646.00;;;8.10
20103;BMP180;10210;52.284;9.892;2022-12-01T06:03:04;101642.00;;;8.10
20103;BMP180;10210;52.284;9.892;2022-12-01T06:05:30;101648.00;;;8.10
20103;BMP180;10210;52.284;9.892;2022-12-01T06:07:55;101647.00;;;8.10
20103;BMP180;10210;52.284;9.892;2022-12-01T06:10:21;101645.00;;;8.10
20103;BMP180;10210;52.284;9.892;2022-12-01T06:12:47;101656.00;;;8.10
20103;BMP180;10210;52.284;9.892;2022-12-01T06:15:13;101651.00;;;8.10
20103;BMP180;10210;52.284;9.892;2022-12-01T06:17:39;101657.00;;;8.10
20103;BMP180;10210;52.284;9.892;2022-12-01T06:20:06;101655.00;;;8.10
20103;BMP180;10210;52.284;9.892;2022-12-01T06:22:32;101662.00;;;8.10
20103;BMP180;10210;52.284;9.892;2022-12-01T06:24:58;101665.00;;;8.10
20103;BMP180;10210;52.284;9.892;2022-12-01T06:27:23;101665.00;;;8.10
20103;BMP180;10210;52.284;9.892;2022-12-01T06:29:49;101665.00;;;8.10
20103;BMP180;10210;52.284;9.892;2022-12-01T06:32:15;101664.00;;;8.10
20103;BMP180;10210;52.284;9.892;2022-12-01T06:34:41;101664.00;;;8.10
20103;BMP180;10210;52.284;9.892;2022-12-01T06:37:09;101670.00;;;8.00
20103;BMP180;10210;52.284;9.892;2022-12-01T06:39:35;101668.00;;;8.00
20103;BMP180;10210;52.284;9.892;2022-12-01T06:42:01;101669.00;;;8.00
20103;BMP180;10210;52.284;9.892;2022-12-01T06:44:26;101671.00;;;8.00
20103;BMP180;10210;52.284;9.892;2022-12-01T06:46:52;101666.00;;;8.00
20103;BMP180;10210;52.284;9.892;2022-12-01T06:49:18;101679.00;;;8.00
20103;BMP180;10210;52.284;9.892;2022-12-01T06:51:45;101673.00;;;8.00
20103;BMP180;10210;52.284;9.892;2022-12-01T06:54:11;101672.00;;;8.00
20103;BMP180;10210;52.284;9.892;2022-12-01T06:56:37;101677.00;;;8.00
20103;BMP180;10210;52.284;9.892;2022-12-01T06:59:03;101679.00;;;8.00
20103;BMP180;10210;52.284;9.892;2022-12-01T07:01:29;101679.00;;;8.00
20103;BMP180;10210;52.284;9.892;2022-12-01T07:03:55;101684.00;;;8.00
20103;BMP180;10210;52.284;9.892;2022-12-01T07:06:21;101679.00;;;8.00
20103;BMP180;10210;52.284;9.892;2022-12-01T07:08:47;101682.00;;;8.00
20103;BMP180;10210;52.284;9.892;2022-12-01T07:11:14;101678.00;;;8.00
20103;BMP180;10210;52.284;9.892;2022-12-01T07:13:42;101684.00;;;8.00
20103;BMP180;10210;52.284;9.892;2022-12-01T07:16:10;101682.00;;;8.00
20103;BMP180;10210;52.284;9.892;2022-12-01T07:18:37;101681.00;;;8.00
20103;BMP180;10210;52.284;9.892;2022-12-01T07:21:07;101679.00;;;8.00
20103;BMP180;10210;52.284;9.892;2022-12-01T07:23:34;101679.00;;;8.00
20103;BMP180;10210;52.284;9.892;2022-12-01T07:26:13;101686.00;;;8.00
20103;BMP180;10210;52.284;9.892;2022-12-01T07:28:40;101683.00;;;8.00
20103;BMP180;10210;52.284;9.892;2022-12-01T07:31:10;101683.00;;;8.00
20103;BMP180;10210;52.284;9.892;2022-12-01T07:33:36;101680.00;;;8.00
20103;BMP180;10210;52.284;9.892;2022-12-01T07:36:03;101676.00;;;8.00
20103;BMP180;10210;52.284;9.892;2022-12-01T07:38:31;101682.00;;;8.00
20103;BMP180;10210;52.284;9.892;2022-12-01T07:41:05;101687.00;;;8.00
20103;BMP180;10210;52.284;9.892;2022-12-01T07:43:32;101693.00;;;8.00
20103;BMP180;10210;52.284;9.892;2022-12-01T07:46:09;101682.00;;;8.00
20103;BMP180;10210;52.284;9.892;2022-12-01T07:48:37;101689.00;;;8.00
20103;BMP180;10210;52.284;9.892;2022-12-01T07:51:05;101698.00;;;8.00
20103;BMP180;10210;52.284;9.892;2022-12-01T07:53:31;101693.00;;;8.00
20103;BMP180;10210;52.284;9.892;2022-12-01T07:55:58;101698.00;;;7.90
20103;BMP180;10210;52.284;9.892;2022-12-01T07:58:24;101696.00;;;8.00
20103;BMP180;10210;52.284;9.892;2022-12-01T08:00:51;101697.00;;;8.00
20103;BMP180;10210;52.284;9.892;2022-12-01T08:03:18;101704.00;;;8.00
20103;BMP180;10210;52.284;9.892;2022-12-01T08:05:44;101699.00;;;8.00
20103;BMP180;10210;52.284;9.892;2022-12-01T08:08:09;101704.00;;;8.00
20103;BMP180;10210;52.284;9.892;2022-12-01T08:10:35;101707.00;;;8.00
20103;BMP180;10210;52.284;9.892;2022-12-01T08:13:02;101713.00;;;7.90
20103;BMP180;10210;52.284;9.892;2022-12-01T08:15:28;101707.00;;;7.90
20103;BMP180;10210;52.284;9.892;2022-12-01T08:17:53;101707.00;;;7.90
20103;BMP180;10210;52.284;9.892;2022-12-01T08:20:19;101706.00;;;7.90
20103;BMP180;10210;52.284;9.892;2022-12-01T08:22:46;101705.00;;;7.90
20103;BMP180;10210;52.284;9.892;2022-12-01T08:25:12;101715.00;;;7.90
20103;BMP180;10210;52.284;9.892;2022-12-01T08:27:37;101714.00;;;7.90
20103;BMP180;10210;52.284;9.892;2022-12-01T08:30:04;101732.00;;;7.90
20103;BMP180;10210;52.284;9.892;2022-12-01T08:32:30;101725.00;;;8.00
20103;BMP180;10210;52.284;9.892;2022-12-01T08:34:55;101719.00;;;8.00
20103;BMP180;10210;52.284;9.892;2022-12-01T08:37:21;101716.00;;;8.00
20103;BMP180;10210;52.284;9.892;2022-12-01T08:39:47;101725.00;;;8.00
20103;BMP180;10210;52.284;9.892;2022-12-01T08:42:12;101726.00;;;8.00
20103;BMP180;10210;52.284;9.892;2022-12-01T08:44:38;101722.00;;;8.00
20103;BMP180;10210;52.284;9.892;2022-12-01T08:47:04;101733.00;;;8.00
20103;BMP180;10210;52.284;9.892;2022-12-01T08:49:29;101747.00;;;8.00
20103;BMP180;10210;52.284;9.892;2022-12-01T08:51:55;101744.00;;;8.00
20103;BMP180;10210;52.284;9.892;2022-12-01T08:54:21;101733.00;;;8.00
20103;BMP180;10210;52.284;9.892;2022-12-01T08:56:47;101736.00;;;8.00
20103;BMP180;10210;52.284;9.892;2022-12-01T08:59:13;101749.00;;;8.00
20103;BMP180;10210;52.284;9.892;2022-12-01T09:01:39;101742.00;;;8.00
20103;BMP180;10210;52.284;9.892;2022-12-01T09:04:19;101742.00;;;8.00
20103;BMP180;10210;52.284;9.892;2022-12-01T09:06:48;101732.00;;;8.00
20103;BMP180;10210;52.284;9.892;2022-12-01T09:09:19;101733.00;;;8.00
20103;BMP180;10210;52.284;9.892;2022-12-01T09:11:46;101732.00;;;8.00
20103;BMP180;10210;52.284;9.892;2022-12-01T09:14:14;101755.00;;;8.00
20103;BMP180;10210;52.284;9.892;2022-12-01T09:16:42;101739.00;;;8.00
20103;BMP180;10210;52.284;9.892;2022-12-01T09:19:08;101750.00;;;8.00
20103;BMP180;10210;52.284;9.892;2022-12-01T09:21:35;101740.00;;;8.00
20103;BMP180;10210;52.284;9.892;2022-12-01T09:24:06;101755.00;;;8.00
20103;BMP180;10210;52.284;9.892;2022-12-01T09:26:32;101751.00;;;8.00
20103;BMP180;10210;52.284;9.892;2022-12-01T09:29:10;101760.00;;;8.10
20103;BMP180;10210;52.284;9.892;2022-12-01T09:31:36;101758.00;;;8.10
20103;BMP180;10210;52.284;9.892;2022-12-01T09:34:06;101749.00;;;8.10
20103;BMP180;10210;52.284;9.892;2022-12-01T09:36:35;101754.00;;;8.10
20103;BMP180;10210;52.284;9.892;2022-12-01T09:39:01;101748.00;;;8.10
20103;BMP180;10210;52.284;9.892;2022-12-01T09:41:36;101749.00;;;8.10
20103;BMP180;10210;52.284;9.892;2022-12-01T09:47:08;101743.00;;;8.10
20103;BMP180;10210;52.284;9.892;2022-12-01T09:52:26;101739.00;;;8.10
20103;BMP180;10210;52.284;9.892;2022-12-01T09:54:57;101729.00;;;8.10
20103;BMP180;10210;52.284;9.892;2022-12-01T09:57:36;101721.00;;;8.10
20103;BMP180;10210;52.284;9.892;2022-12-01T10:00:18;101720.00;;;8.10
20103;BMP180;10210;52.284;9.892;2022-12-01T10:02:54;101721.00;;;8.10
20103;BMP180;10210;52.284;9.892;2022-12-01T10:05:26;101728.00;;;8.10
20103;BMP180;10210;52.284;9.892;2022-12-01T10:08:07;101730.00;;;8.10
20103;BMP180;10210;52.284;9.892;2022-12-01T10:10:47;101715.00;;;8.10
20103;BMP180;10210;52.284;9.892;2022-12-01T10:13:20;101734.00;;;8.20
20103;BMP180;10210;52.284;9.892;2022-12-01T10:18:37;101720.00;;;8.20
20103;BMP180;10210;52.284;9.892;2022-12-01T10:21:29;101718.00;;;8.10
20103;BMP180;10210;52.284;9.892;2022-12-01T10:24:19;101721.00;;;8.10
20103;BMP180;10210;52.284;9.892;2022-12-01T10:30:19;101723.00;;;8.10
20103;BMP180;10210;52.284;9.892;2022-12-01T10:32:51;101707.00;;;8.10
20103;BMP180;10210;52.284;9.892;2022-12-01T10:35:23;101721.00;;;8.10
20103;BMP180;10210;52.284;9.892;2022-12-01T10:37:57;101714.00;;;8.10
20103;BMP180;10210;52.284;9.892;2022-12-01T10:40:26;101706.00;;;8.10
20103;BMP180;10210;52.284;9.892;2022-12-01T10:42:52;101701.00;;;8.10
20103;BMP180;10210;52.284;9.892;2022-12-01T10:45:24;101712.00;;;8.10
20103;BMP180;10210;52.284;9.892;2022-12-01T10:51:13;101712.00;;;8.10
20103;BMP180;10210;52.284;9.892;2022-12-01T10:53:39;101706.00;;;8.10
20103;BMP180;10210;52.284;9.892;2022-12-01T10:56:19;101710.00;;;8.10
20103;BMP180;10210;52.284;9.892;2022-12-01T10:59:01;101709.00;;;8.20
20103;BMP180;10210;52.284;9.892;2022-12-01T11:01:31;101703.00;;;8.20
20103;BMP180;10210;52.284;9.892;2022-12-01T11:04:32;101702.00;;;8.20
20103;BMP180;10210;52.284;9.892;2022-12-01T11:07:00;101709.00;;;8.20
20103;BMP180;10210;52.284;9.892;2022-12-01T11:09:28;101706.00;;;8.30
20103;BMP180;10210;52.284;9.892;2022-12-01T11:12:03;101699.00;;;8.30
20103;BMP180;10210;52.284;9.892;2022-12-01T11:14:47;101705.00;;;8.30
20103;BMP180;10210;52.284;9.892;2022-12-01T11:17:36;101697.00;;;8.30
20103;BMP180;10210;52.284;9.892;2022-12-01T11:20:36;101697.00;;;8.30
20103;BMP180;10210;52.284;9.892;2022-12-01T11:26:04;101691.00;;;8.30
20103;BMP180;10210;52.284;9.892;2022-12-01T11:28:32;101680.00;;;8.30
20103;BMP180;10210;52.284;9.892;2022-12-01T11:31:08;101684.00;;;8.30
20103;BMP180;10210;52.284;9.892;2022-12-01T11:33:53;101690.00;;;8.30
20103;BMP180;10210;52.284;9.892;2022-12-01T11:36:45;101685.00;;;8.30
20103;BMP180;10210;52.284;9.892;2022-12-01T11:39:40;101688.00;;;8.30
20103;BMP180;10210;52.284;9.892;2022-12-01T11:44:48;101691.00;;;8.30
20103;BMP180;10210;52.284;9.892;2022-12-01T11:47:27;101683.00;;;8.40
20103;BMP180;10210;52.284;9.892;2022-12-01T11:49:57;101696.00;;;8.40
20103;BMP180;10210;52.284;9.892;2022-12-01T11:52:31;101697.00;;;8.40
20103;BMP180;10210;52.284;9.892;2022-12-01T11:57:30;101700.00;;;8.40
20103;BMP180;10210;52.284;9.892;2022-12-01T11:59:57;101695.00;;;8.50
20103;BMP180;10210;52.284;9.892;2022-12-01T12:02:34;101683.00;;;8.50
20103;BMP180;10210;52.284;9.892;2022-12-01T12:08:43;101686.00;;;8.40
20103;BMP180;10210;52.284;9.892;2022-12-01T12:11:38;101669.00;;;8.40
20103;BMP180;10210;52.284;9.892;2022-12-01T12:14:32;101681.00;;;8.40
20103;BMP180;10210;52.284;9.892;2022-12-01T12:17:18;101678.00;;;8.40
20103;BMP180;10210;52.284;9.892;2022-12-01T12:20:29;101669.00;;;8.40
20103;BMP180;10210;52.284;9.892;2022-12-01T12:26:18;101674.00;;;8.40
20103;BMP180;10210;52.284;9.892;2022-12-01T12:32:24;101680.00;;;8.40
20103;BMP180;10210;52.284;9.892;2022-12-01T12:38:29;101676.00;;;8.40
20103;BMP180;10210;52.284;9.892;2022-12-01T12:44:00;101666.00;;;8.40
20103;BMP180;10210;52.284;9.892;2022-12-01T12:52:33;101675.00;;;8.40
20103;BMP180;10210;52.284;9.892;2022-12-01T12:55:49;101679.00;;;8.40
20103;BMP180;10210;52.284;9.892;2022-12-01T13:09:40;101671.00;;;8.40
20103;BMP180;10210;52.284;9.892;2022-12-01T13:12:21;101665.00;;;8.50
20103;BMP180;10210;52.284;9.892;2022-12-01T13:14:58;101660.00;;;8.50
20103;BMP180;10210;52.284;9.892;2022-12-01T13:17:33;101665.00;;;8.50
20103;BMP180;10210;52.284;9.892;2022-12-01T13:20:00;101656.00;;;8.50
20103;BMP180;10210;52.284;9.892;2022-12-01T13:22:33;101655.00;;;8.40
20103;BMP180;10210;52.284;9.892;2022-12-01T13:25:01;101657.00;;;8.40
20103;BMP180;10210;52.284;9.892;2022-12-01T13:27:32;101651.00;;;8.40
20103;BMP180;10210;52.284;9.892;2022-12-01T13:29:59;101652.00;;;8.40
20103;BMP180;10210;52.284;9.892;2022-12-01T13:32:37;101653.00;;;8.40
20103;BMP180;10210;52.284;9.892;2022-12-01T13:35:34;101647.00;;;8.30
20103;BMP180;10210;52.284;9.892;2022-12-01T13:38:20;101655.00;;;8.30
20103;BMP180;10210;52.284;9.892;2022-12-01T13:40:47;101650.00;;;8.30
20103;BMP180;10210;52.284;9.892;2022-12-01T13:43:21;101650.00;;;8.30
20103;BMP180;10210;52.284;9.892;2022-12-01T13:45:48;101655.00;;;8.30
20103;BMP180;10210;52.284;9.892;2022-12-01T13:48:50;101652.00;;;8.20
20103;BMP180;10210;52.284;9.892;2022-12-01T13:51:16;101651.00;;;8.30
20103;BMP180;10210;52.284;9.892;2022-12-01T13:54:15;101656.00;;;8.20
20103;BMP180;10210;52.284;9.892;2022-12-01T13:57:02;101658.00;;;8.20
20103;BMP180;10210;52.284;9.892;2022-12-01T14:02:23;101658.00;;;8.20
20103;BMP180;10210;52.284;9.892;2022-12-01T14:04:49;101654.00;;;8.20
20103;BMP180;10210;52.284;9.892;2022-12-01T14:07:33;101665.00;;;8.20
20103;BMP180;10210;52.284;9.892;2022-12-01T14:10:24;101665.00;;;8.20
20103;BMP180;10210;52.284;9.892;2022-12-01T14:12:53;101654.00;;;8.20
20103;BMP180;10210;52.284;9.892;2022-12-01T14:18:03;101661.00;;;8.20
20103;BMP180;10210;52.284;9.892;2022-12-01T14:20:34;101672.00;;;8.20
20103;BMP180;10210;52.284;9.892;2022-12-01T14:23:17;101663.00;;;8.20
20103;BMP180;10210;52.284;9.892;2022-12-01T14:26:11;101676.00;;;8.20
20103;BMP180;10210;52.284;9.892;2022-12-01T14:34:22;101670.00;;;8.10
20103;BMP180;10210;52.284;9.892;2022-12-01T14:36:56;101674.00;;;8.20
20103;BMP180;10210;52.284;9.892;2022-12-01T14:39:40;101682.00;;;8.20
20103;BMP180;10210;52.284;9.892;2022-12-01T14:42:34;101685.00;;;8.20
20103;BMP180;10210;52.284;9.892;2022-12-01T14:45:28;101680.00;;;8.20
20103;BMP180;10210;52.284;9.892;2022-12-01T14:48:03;101677.00;;;8.20
20103;BMP180;10210;52.284;9.892;2022-12-01T14:50:50;101673.00;;;8.10
20103;BMP180;10210;52.284;9.892;2022-12-01T14:53:31;101684.00;;;8.10
20103;BMP180;10210;52.284;9.892;2022-12-01T14:56:08;101676.00;;;8.10
20103;BMP180;10210;52.284;9.892;2022-12-01T14:58:34;101689.00;;;8.10
20103;BMP180;10210;52.284;9.892;2022-12-01T15:01:08;101682.00;;;8.10
20103;BMP180;10210;52.284;9.892;2022-12-01T15:03:42;101685.00;;;8.10
20103;BMP180;10210;52.284;9.892;2022-12-01T15:06:19;101693.00;;;8.10
20103;BMP180;10210;52.284;9.892;2022-12-01T15:09:20;101687.00;;;8.10
20103;BMP180;10210;52.284;9.892;2022-12-01T15:11:59;101680.00;;;8.10
20103;BMP180;10210;52.284;9.892;2022-12-01T15:16:57;101676.00;;;8.00
20103;BMP180;10210;52.284;9.892;2022-12-01T15:22:27;101669.00;;;8.00
20103;BMP180;10210;52.284;9.892;2022-12-01T15:24:53;101669.00;;;8.00
20103;BMP180;10210;52.284;9.892;2022-12-01T15:27:30;101662.00;;;8.00
20103;BMP180;10210;52.284;9.892;2022-12-01T15:29:59;101660.00;;;8.00
20103;BMP180;10210;52.284;9.892;2022-12-01T15:32:31;101658.00;;;8.00
20103;BMP180;10210;52.284;9.892;2022-12-01T15:34:59;101659.00;;;8.10
20103;BMP180;10210;52.284;9.892;2022-12-01T15:37:41;101662.00;;;8.10
20103;BMP180;10210;52.284;9.892;2022-12-01T15:40:17;101659.00;;;8.10
20103;BMP180;10210;52.284;9.892;2022-12-01T15:42:44;101662.00;;;8.10
20103;BMP180;10210;52.284;9.892;2022-12-01T15:45:21;101663.00;;;8.10
20103;BMP180;10210;52.284;9.892;2022-12-01T15:47:50;101662.00;;;8.10
20103;BMP180;10210;52.284;9.892;2022-12-01T15:50:33;101660.00;;;8.10
20103;BMP180;10210;52.284;9.892;2022-12-01T15:53:32;101660.00;;;8.00
20103;BMP180;10210;52.284;9.892;2022-12-01T15:56:03;101658.00;;;8.00
20103;BMP180;10210;52.284;9.892;2022-12-01T15:58:40;101659.00;;;8.00
20103;BMP180;10210;52.284;9.892;2022-12-01T16:01:12;101672.00;;;8.00
20103;BMP180;10210;52.284;9.892;2022-12-01T16:04:03;101665.00;;;8.00
20103;BMP180;10210;52.284;9.892;2022-12-01T16:06:36;101666.00;;;8.00
20103;BMP180;10210;52.284;9.892;2022-12-01T16:09:20;101665.00;;;8.00
20103;BMP180;10210;52.284;9.892;2022-12-01T16:17:28;101666.00;;;7.90
20103;BMP180;10210;52.284;9.892;2022-12-01T16:20:29;101673.00;;;7.90
20103;BMP180;10210;52.284;9.892;2022-12-01T16:22:59;101671.00;;;7.90
20103;BMP180;10210;52.284;9.892;2022-12-01T16:25:38;101664.00;;;7.90